Urb Highland Park, Puerto Rico
Current Conditions -  °F | °C
As of 1:56 PM on Sunday 28 Dec 2014 (Local Time) from TJSJ Reporting Station
Scattered Clouds Scattered Clouds  
Wind Chill: 81°   Ceiling: Unl
Heat Index: 84°   Visibility: 10mi
Dew Point: 69°   Wind: 14mph
Humidity: 67%   Direction: 70°ENE
Pressure: 30.01"   Gusts: NA
Location:  18.4051°N, 66.0126°W
Report Text: TJSJ 281756Z 07012KT 10SM FEW031 SCT055 SCT100 27/21 A3001 RMK AO2 SLP162 VCSH NE 60005 T02720206 10289 20244 56023
Loading
Personal Weather Stations






























Interactive Weather Map New forecast layout! Learn more

10-Day Weather Forecast

Advertisements
Track Severe Weather on mobile